createdAt,value
2018-09-25T00:00:36.602Z,3.70
2018-09-25T00:03:14.540Z,3.27
2018-09-25T00:05:52.460Z,3.43
2018-09-25T00:08:30.382Z,2.70
2018-09-25T00:11:08.281Z,3.00
2018-09-25T00:13:46.284Z,2.90
2018-09-25T00:16:24.173Z,3.03
2018-09-25T00:19:02.125Z,3.07
2018-09-25T00:21:40.098Z,2.57
2018-09-25T00:24:18.040Z,3.13
2018-09-25T00:26:55.972Z,3.30
2018-09-25T00:29:34.062Z,2.83
2018-09-25T00:32:12.030Z,3.23
2018-09-25T00:34:50.038Z,3.30
2018-09-25T00:37:28.116Z,2.73
2018-09-25T00:40:06.049Z,2.73
2018-09-25T00:42:43.992Z,2.83
2018-09-25T00:45:21.923Z,3.13
2018-09-25T00:47:59.803Z,3.37
2018-09-25T00:50:37.633Z,3.20
2018-09-25T00:53:15.631Z,3.13
2018-09-25T00:55:53.564Z,3.40
2018-09-25T00:58:31.485Z,3.37
2018-09-25T01:01:09.480Z,3.23
2018-09-25T01:03:47.425Z,3.10
2018-09-25T01:06:25.553Z,2.90
2018-09-25T01:09:03.429Z,3.07
2018-09-25T01:11:41.476Z,3.17
2018-09-25T01:14:19.416Z,3.20
2018-09-25T01:16:57.372Z,3.63
2018-09-25T01:19:35.237Z,3.33
2018-09-25T01:22:13.083Z,3.37
2018-09-25T01:24:51.000Z,3.80
2018-09-25T01:27:28.974Z,3.40
2018-09-25T01:30:06.957Z,3.87
2018-09-25T01:32:48.252Z,3.37
2018-09-25T01:35:28.556Z,3.53
2018-09-25T01:38:07.714Z,3.90
2018-09-25T01:43:33.344Z,3.20
2018-09-25T01:46:11.305Z,2.90
2018-09-25T01:48:49.265Z,3.30
2018-09-25T01:51:27.121Z,3.17
2018-09-25T01:54:05.001Z,3.90
2018-09-25T01:56:42.946Z,3.40
2018-09-25T01:59:20.902Z,2.93
2018-09-25T02:01:59.037Z,3.20
2018-09-25T02:04:37.012Z,3.13
2018-09-25T02:07:14.906Z,3.00
2018-09-25T02:09:52.916Z,3.00
2018-09-25T02:12:30.975Z,2.60
2018-09-25T02:15:08.937Z,2.93
2018-09-25T02:17:46.924Z,3.20
2018-09-25T02:20:24.817Z,3.07
2018-09-25T02:23:02.783Z,3.47
2018-09-25T02:25:40.588Z,3.30
2018-09-25T02:28:18.488Z,3.40
2018-09-25T02:30:56.278Z,3.30
2018-09-25T02:33:34.165Z,2.50
2018-09-25T02:36:12.119Z,3.17
2018-09-25T02:38:50.082Z,3.90
2018-09-25T02:41:27.931Z,3.53
2018-09-25T02:44:05.973Z,3.43
2018-09-25T02:46:43.863Z,3.13
2018-09-25T02:49:21.770Z,3.13
2018-09-25T02:51:59.774Z,3.07
2018-09-25T02:54:37.632Z,3.33
2018-09-25T02:57:15.662Z,3.70
2018-09-25T02:59:53.723Z,3.20
2018-09-25T03:02:31.681Z,3.50
2018-09-25T03:05:09.553Z,3.30
2018-09-25T03:07:47.496Z,3.33
2018-09-25T03:10:25.309Z,3.10
2018-09-25T03:13:03.501Z,3.00
2018-09-25T03:15:41.399Z,2.60
2018-09-25T03:18:19.348Z,2.63
2018-09-25T03:20:57.232Z,2.67
2018-09-25T03:23:35.154Z,2.90
2018-09-25T03:26:12.997Z,2.70
2018-09-25T03:28:51.020Z,3.60
2018-09-25T03:31:28.947Z,3.00
2018-09-25T03:34:07.053Z,2.90
2018-09-25T03:36:45.069Z,3.30
2018-09-25T03:39:23.069Z,3.40
2018-09-25T03:42:01.009Z,3.10
2018-09-25T03:44:38.882Z,3.23
2018-09-25T03:47:17.057Z,3.13
2018-09-25T03:49:55.081Z,3.57
2018-09-25T03:52:32.968Z,3.43
2018-09-25T03:55:10.884Z,3.23
2018-09-25T03:57:48.657Z,2.93
2018-09-25T04:00:26.598Z,3.33
2018-09-25T04:03:04.572Z,3.50
2018-09-25T04:05:43.506Z,3.70
2018-09-25T04:08:21.505Z,3.50
2018-09-25T04:10:59.565Z,3.37
2018-09-25T04:13:37.417Z,3.70
2018-09-25T04:16:15.445Z,3.60
2018-09-25T04:18:53.512Z,2.93
2018-09-25T04:21:31.468Z,3.60
2018-09-25T04:24:09.406Z,3.60
2018-09-25T04:26:47.397Z,3.80
2018-09-25T04:29:25.285Z,4.00
2018-09-25T04:32:03.311Z,3.27
2018-09-25T04:34:41.372Z,3.53
2018-09-25T04:37:20.399Z,3.97
2018-09-25T04:39:58.359Z,3.83
2018-09-25T04:42:36.297Z,3.70
2018-09-25T04:45:14.177Z,3.33
2018-09-25T04:47:52.359Z,3.07
2018-09-25T04:50:30.316Z,4.17
2018-09-25T04:53:08.332Z,3.60
2018-09-25T04:55:46.153Z,2.97
2018-09-25T04:58:24.188Z,3.50
2018-09-25T05:01:02.196Z,3.13
2018-09-25T05:03:40.128Z,3.70
2018-09-25T05:06:18.056Z,4.20
2018-09-25T05:08:57.086Z,3.83
2018-09-25T05:11:35.165Z,3.90
2018-09-25T05:14:13.237Z,3.77
2018-09-25T05:16:51.054Z,3.90
2018-09-25T05:19:29.051Z,4.20
2018-09-25T05:22:06.993Z,4.20
2018-09-25T05:24:45.005Z,3.27
2018-09-25T05:27:22.891Z,3.60
2018-09-25T05:30:00.904Z,3.17
2018-09-25T05:32:38.930Z,4.23
2018-09-25T05:35:16.930Z,3.47
2018-09-25T05:37:54.953Z,4.53
2018-09-25T05:40:32.942Z,3.97
2018-09-25T05:43:11.132Z,3.53
2018-09-25T05:45:49.141Z,3.60
2018-09-25T05:48:27.055Z,3.30
2018-09-25T05:51:05.021Z,3.93
2018-09-25T05:53:42.971Z,4.03
2018-09-25T05:56:20.881Z,3.83
2018-09-25T05:58:58.856Z,3.70
2018-09-25T06:01:36.982Z,2.97
2018-09-25T06:04:14.980Z,4.60
2018-09-25T06:06:52.976Z,3.97
2018-09-25T06:09:30.893Z,4.60
2018-09-25T06:12:08.981Z,4.23
2018-09-25T06:14:46.828Z,3.87
2018-09-25T06:17:24.869Z,3.53
2018-09-25T06:20:02.809Z,3.40
2018-09-25T06:22:40.708Z,3.70
2018-09-25T06:25:18.647Z,3.50
2018-09-25T06:27:56.640Z,3.47
2018-09-25T06:30:34.553Z,3.67
2018-09-25T06:33:12.576Z,3.90
2018-09-25T06:35:50.544Z,3.50
2018-09-25T06:38:28.526Z,3.80
2018-09-25T06:41:06.440Z,4.50
2018-09-25T06:43:44.276Z,4.50
2018-09-25T06:46:22.312Z,4.07
2018-09-25T06:49:00.117Z,3.43
2018-09-25T06:51:38.033Z,3.97
2018-09-25T06:54:16.032Z,5.10
2018-09-25T06:56:53.984Z,4.43
2018-09-25T06:59:31.916Z,3.87
2018-09-25T07:02:09.976Z,4.57
2018-09-25T07:04:47.925Z,4.53
2018-09-25T07:07:25.898Z,5.40
2018-09-25T07:10:04.066Z,4.97
2018-09-25T07:12:41.876Z,5.40
2018-09-25T07:15:19.809Z,4.93
2018-09-25T07:17:57.806Z,4.40
2018-09-25T07:20:35.679Z,4.50
2018-09-25T07:23:13.512Z,5.10
2018-09-25T07:25:51.501Z,4.80
2018-09-25T07:28:29.485Z,5.10
2018-09-25T07:31:07.549Z,5.37
2018-09-25T07:33:45.409Z,5.50
2018-09-25T07:36:23.528Z,4.90
2018-09-25T07:39:01.487Z,5.87
2018-09-25T07:41:39.461Z,4.83
2018-09-25T07:44:17.384Z,5.33
2018-09-25T07:46:55.469Z,5.83
2018-09-25T07:49:33.396Z,5.10
2018-09-25T07:52:11.485Z,4.87
2018-09-25T07:54:49.414Z,5.20
2018-09-25T07:57:27.457Z,5.10
2018-09-25T08:00:05.357Z,7.43
2018-09-25T08:02:43.350Z,4.80
2018-09-25T08:05:21.289Z,4.23
2018-09-25T08:07:59.325Z,4.90
2018-09-25T08:10:37.169Z,4.27
2018-09-25T08:13:15.197Z,4.10
2018-09-25T08:15:53.182Z,3.90
2018-09-25T08:18:31.072Z,3.50
2018-09-25T08:21:09.076Z,3.50
2018-09-25T08:23:46.924Z,4.10
2018-09-25T08:26:24.860Z,3.97
2018-09-25T08:29:02.814Z,3.00
2018-09-25T08:31:40.805Z,3.03
2018-09-25T08:34:18.784Z,2.63
2018-09-25T08:36:56.760Z,2.60
2018-09-25T08:39:34.985Z,2.70
2018-09-25T08:42:12.670Z,2.30
2018-09-25T08:44:50.656Z,2.02
2018-09-25T08:47:28.630Z,2.47
2018-09-25T08:50:06.418Z,1.95
2018-09-25T08:52:44.351Z,1.57
2018-09-25T08:55:22.238Z,2.27
2018-09-25T08:58:00.185Z,1.90
2018-09-25T09:00:38.271Z,2.20
2018-09-25T09:03:16.217Z,2.37
2018-09-25T09:05:54.248Z,1.97
2018-09-25T09:08:32.260Z,1.97
2018-09-25T09:11:10.234Z,1.90
2018-09-25T09:13:48.285Z,1.80
2018-09-25T09:16:26.252Z,2.07
2018-09-25T09:19:04.245Z,1.90
2018-09-25T09:21:42.173Z,1.90
2018-09-25T09:24:20.150Z,1.97
2018-09-25T09:26:58.133Z,1.90
2018-09-25T09:29:36.076Z,1.93
2018-09-25T09:32:13.875Z,1.60
2018-09-25T09:34:51.781Z,2.00
2018-09-25T09:37:29.600Z,1.70
2018-09-25T09:40:07.521Z,1.80
2018-09-25T09:42:45.485Z,1.67
2018-09-25T09:45:23.372Z,1.90
2018-09-25T09:48:01.171Z,2.00
2018-09-25T09:50:39.129Z,1.93
2018-09-25T09:53:17.040Z,2.07
2018-09-25T09:55:54.982Z,2.20
2018-09-25T09:58:32.818Z,2.10
2018-09-25T10:01:10.800Z,2.17
2018-09-25T10:03:48.732Z,2.10
2018-09-25T10:06:26.722Z,1.67
2018-09-25T10:09:04.664Z,1.90
2018-09-25T10:11:42.618Z,1.60
2018-09-25T10:14:21.113Z,2.00
2018-09-25T10:16:59.128Z,1.70
2018-09-25T10:19:37.132Z,1.93
2018-09-25T10:22:15.090Z,1.80
2018-09-25T10:24:52.941Z,2.03
2018-09-25T10:27:30.967Z,1.80
2018-09-25T10:30:08.989Z,2.00
2018-09-25T10:32:47.093Z,2.00
2018-09-25T10:35:24.985Z,1.93
2018-09-25T10:38:02.850Z,1.63
2018-09-25T10:40:40.773Z,1.97
2018-09-25T10:43:18.801Z,1.90
2018-09-25T10:45:56.653Z,1.90
2018-09-25T10:48:34.524Z,1.93
2018-09-25T10:51:12.575Z,2.07
2018-09-25T10:53:50.601Z,1.67
2018-09-25T10:56:28.544Z,1.77
2018-09-25T10:59:06.494Z,2.03
2018-09-25T11:01:44.504Z,2.00
2018-09-25T11:04:22.515Z,2.00
2018-09-25T11:07:00.422Z,1.90
2018-09-25T11:09:38.418Z,1.67
2018-09-25T11:12:16.345Z,1.90
2018-09-25T11:14:54.103Z,1.83
2018-09-25T11:17:32.175Z,1.90
2018-09-25T11:20:10.068Z,1.60
2018-09-25T11:22:47.809Z,1.90
2018-09-25T11:25:25.766Z,1.90
2018-09-25T11:28:03.813Z,1.80
2018-09-25T11:30:41.855Z,2.27
2018-09-25T11:33:19.846Z,1.80
2018-09-25T11:35:57.856Z,1.77
2018-09-25T11:38:35.784Z,1.60
2018-09-25T11:41:13.797Z,1.97
2018-09-25T11:43:51.767Z,1.70
2018-09-25T11:46:29.801Z,1.60
2018-09-25T11:49:07.753Z,1.60
2018-09-25T11:51:45.713Z,1.90
2018-09-25T11:54:23.725Z,1.70
2018-09-25T11:57:01.629Z,1.70
2018-09-25T11:59:39.718Z,1.70
2018-09-25T12:02:17.767Z,1.63
2018-09-25T12:04:55.748Z,1.73
2018-09-25T12:07:33.827Z,1.90
2018-09-25T12:10:11.805Z,1.47
2018-09-25T12:12:49.748Z,1.70
2018-09-25T12:15:27.588Z,1.87
2018-09-25T12:18:05.560Z,1.80
2018-09-25T12:20:43.559Z,1.80
2018-09-25T12:23:21.537Z,1.87
2018-09-25T12:25:59.422Z,2.10
2018-09-25T12:28:37.332Z,2.00
2018-09-25T12:31:15.244Z,1.60
2018-09-25T12:33:53.324Z,1.90
2018-09-25T12:36:31.156Z,1.70
2018-09-25T12:39:10.933Z,1.70
2018-09-25T12:41:48.905Z,2.10
2018-09-25T12:44:26.776Z,1.90
2018-09-25T12:47:04.825Z,1.57
2018-09-25T12:49:42.829Z,2.03
2018-09-25T12:52:20.808Z,1.90
2018-09-25T12:54:58.975Z,1.93
2018-09-25T12:57:36.885Z,2.00
2018-09-25T13:00:14.842Z,2.37
2018-09-25T13:02:52.702Z,1.87
2018-09-25T13:05:30.680Z,1.83
2018-09-25T13:08:08.965Z,2.00
2018-09-25T13:10:46.958Z,1.83
2018-09-25T13:13:24.873Z,2.10
2018-09-25T13:16:03.044Z,2.07
2018-09-25T13:18:40.955Z,1.70
2018-09-25T13:21:18.997Z,2.27
2018-09-25T13:23:57.015Z,2.70
2018-09-25T13:26:35.042Z,1.83
2018-09-25T13:29:12.957Z,1.83
2018-09-25T13:31:50.927Z,1.90
2018-09-25T13:34:28.901Z,1.73
2018-09-25T13:37:06.834Z,2.13
2018-09-25T13:39:44.842Z,1.90
2018-09-25T13:42:22.757Z,1.63
2018-09-25T13:45:00.718Z,2.00
2018-09-25T13:47:38.748Z,1.83
2018-09-25T13:50:16.718Z,1.47
2018-09-25T13:52:54.688Z,1.80
2018-09-25T13:55:32.720Z,1.70
2018-09-25T13:58:10.619Z,1.77
2018-09-25T14:00:49.044Z,1.67
2018-09-25T14:03:27.100Z,1.93
2018-09-25T14:06:05.000Z,1.70
2018-09-25T14:08:42.853Z,1.50
2018-09-25T14:11:20.895Z,2.00
2018-09-25T14:13:58.893Z,1.73
2018-09-25T14:16:36.900Z,1.70
2018-09-25T14:19:14.784Z,1.53
2018-09-25T14:21:52.841Z,1.73
2018-09-25T14:24:31.005Z,1.63
2018-09-25T14:27:08.801Z,1.90
2018-09-25T14:29:46.807Z,1.83
2018-09-25T14:32:24.816Z,1.57
2018-09-25T14:35:02.803Z,1.47
2018-09-25T14:37:40.781Z,1.73
2018-09-25T14:40:18.653Z,1.73
2018-09-25T14:42:56.715Z,1.40
2018-09-25T14:45:34.736Z,1.87
2018-09-25T14:48:12.705Z,2.03
2018-09-25T14:50:50.657Z,1.90
2018-09-25T14:53:28.722Z,2.00
2018-09-25T14:56:06.695Z,3.43
2018-09-25T14:58:44.646Z,2.00
2018-09-25T15:01:22.662Z,1.53
2018-09-25T15:04:00.590Z,1.83
2018-09-25T15:06:38.718Z,1.87
2018-09-25T15:09:16.780Z,1.60
2018-09-25T15:11:54.746Z,2.00
2018-09-25T15:14:32.689Z,1.80
2018-09-25T15:17:10.651Z,1.97
2018-09-25T15:19:48.738Z,2.00
2018-09-25T15:22:26.578Z,1.40
2018-09-25T15:25:04.508Z,1.80
2018-09-25T15:27:42.589Z,1.80
2018-09-25T15:30:20.574Z,2.00
2018-09-25T15:32:58.497Z,1.80
2018-09-25T15:35:36.557Z,1.90
2018-09-25T15:38:14.496Z,2.17
2018-09-25T15:40:52.498Z,2.00
2018-09-25T15:43:30.389Z,2.00
2018-09-25T15:46:08.302Z,2.00
2018-09-25T15:48:46.249Z,2.10
2018-09-25T15:51:24.315Z,2.00
2018-09-25T15:54:02.490Z,1.90
2018-09-25T15:56:40.422Z,2.27
2018-09-25T15:59:18.305Z,1.90
2018-09-25T16:01:56.359Z,2.00
2018-09-25T16:04:34.365Z,2.40
2018-09-25T16:07:12.339Z,2.10
2018-09-25T16:09:50.319Z,1.97
2018-09-25T16:12:28.270Z,1.80
2018-09-25T16:15:06.171Z,2.07
2018-09-25T16:17:44.297Z,1.87
2018-09-25T16:20:22.317Z,2.10
2018-09-25T16:23:00.225Z,1.90
2018-09-25T16:25:38.142Z,1.63
2018-09-25T16:28:16.121Z,1.80
2018-09-25T16:30:54.092Z,1.57
2018-09-25T16:33:32.036Z,1.93
2018-09-25T16:36:10.155Z,1.90
2018-09-25T16:38:48.129Z,1.90
2018-09-25T16:41:26.157Z,2.10
2018-09-25T16:44:04.158Z,2.13
2018-09-25T16:46:42.249Z,2.00
2018-09-25T16:49:20.179Z,1.83
2018-09-25T16:51:58.198Z,1.90
2018-09-25T16:54:36.251Z,1.87
2018-09-25T16:57:14.338Z,1.63
2018-09-25T16:59:52.264Z,1.90
2018-09-25T17:02:37.401Z,2.00
2018-09-25T17:05:15.446Z,2.10
2018-09-25T17:07:53.342Z,2.10
2018-09-25T17:10:31.354Z,1.93
2018-09-25T17:13:09.372Z,1.90
2018-09-25T17:15:47.413Z,2.07
2018-09-25T17:18:25.343Z,1.93
2018-09-25T17:21:03.437Z,2.47
2018-09-25T17:23:41.521Z,2.13
2018-09-25T17:26:19.599Z,2.20
2018-09-25T17:28:57.521Z,2.40
2018-09-25T17:31:35.376Z,2.07
2018-09-25T17:34:13.333Z,2.37
2018-09-25T17:36:51.415Z,2.40
2018-09-25T17:39:29.280Z,2.20
2018-09-25T17:42:07.221Z,2.30
2018-09-25T17:44:45.211Z,2.13
2018-09-25T17:47:23.240Z,2.00
2018-09-25T17:50:01.299Z,3.07
2018-09-25T17:52:40.206Z,4.07
2018-09-25T17:55:18.158Z,3.23
2018-09-25T17:57:56.082Z,3.33
2018-09-25T18:00:34.096Z,2.63
2018-09-25T18:03:12.655Z,4.37
2018-09-25T18:05:50.699Z,5.23
2018-09-25T18:08:28.645Z,4.80
2018-09-25T18:11:06.564Z,4.17
2018-09-25T18:13:44.513Z,4.00
2018-09-25T18:16:22.575Z,3.30
2018-09-25T18:19:00.522Z,3.43
2018-09-25T18:21:38.543Z,3.20
2018-09-25T18:24:16.380Z,3.43
2018-09-25T18:26:54.245Z,3.23
2018-09-25T18:29:49.448Z,3.43
2018-09-25T18:32:27.541Z,3.50
2018-09-25T18:35:05.425Z,3.60
2018-09-25T18:37:43.352Z,5.03
2018-09-25T18:40:21.414Z,5.00
2018-09-25T18:42:59.451Z,4.87
2018-09-25T18:45:37.409Z,4.27
2018-09-25T18:48:15.422Z,3.20
2018-09-25T18:50:53.350Z,3.20
2018-09-25T18:53:31.318Z,3.40
2018-09-25T18:56:09.195Z,2.77
2018-09-25T18:58:47.235Z,3.03
2018-09-25T19:01:25.080Z,3.10
2018-09-25T19:04:03.130Z,2.57
2018-09-25T19:06:41.211Z,2.63
2018-09-25T19:09:19.222Z,3.27
2018-09-25T19:11:57.128Z,4.57
2018-09-25T19:14:35.125Z,4.43
2018-09-25T19:17:13.232Z,3.53
2018-09-25T19:19:51.251Z,3.23
2018-09-25T19:22:29.227Z,3.90
2018-09-25T19:25:07.244Z,3.60
2018-09-25T19:27:45.253Z,3.13
2018-09-25T19:30:23.282Z,2.70
2018-09-25T19:33:01.250Z,3.17
2018-09-25T19:35:39.151Z,2.63
2018-09-25T19:38:17.098Z,2.70
2018-09-25T19:40:55.058Z,2.37
2018-09-25T19:43:33.128Z,2.47
2018-09-25T19:46:11.070Z,3.20
2018-09-25T19:48:48.995Z,3.13
2018-09-25T19:51:26.927Z,4.43
2018-09-25T19:54:04.963Z,4.83
2018-09-25T19:56:42.972Z,5.40
2018-09-25T19:59:20.820Z,4.73
2018-09-25T20:01:58.722Z,3.90
2018-09-25T20:04:36.721Z,3.17
2018-09-25T20:07:14.891Z,3.07
2018-09-25T20:09:53.262Z,2.97
2018-09-25T20:12:31.074Z,3.00
2018-09-25T20:15:09.050Z,3.03
2018-09-25T20:17:47.007Z,3.50
2018-09-25T20:20:24.995Z,4.67
2018-09-25T20:23:03.003Z,4.67
2018-09-25T20:25:41.108Z,4.30
2018-09-25T20:28:18.930Z,3.97
2018-09-25T20:30:56.909Z,3.83
2018-09-25T20:33:34.720Z,5.07
2018-09-25T20:36:12.653Z,3.50
2018-09-25T20:38:50.554Z,3.60
2018-09-25T20:41:28.583Z,3.87
2018-09-25T20:44:06.675Z,3.70
2018-09-25T20:46:44.666Z,3.90
2018-09-25T20:49:22.556Z,3.67
2018-09-25T20:52:00.477Z,4.50
2018-09-25T20:54:38.584Z,3.43
2018-09-25T20:57:16.653Z,3.50
2018-09-25T20:59:54.484Z,3.50
2018-09-25T21:02:32.527Z,3.77
2018-09-25T21:05:10.506Z,4.10
2018-09-25T21:07:48.531Z,4.57
2018-09-25T21:10:26.397Z,4.07
2018-09-25T21:13:04.438Z,3.93
2018-09-25T21:15:42.415Z,4.30
2018-09-25T21:18:20.394Z,4.37
2018-09-25T21:20:58.413Z,4.07
2018-09-25T21:23:36.584Z,4.33
2018-09-25T21:26:14.560Z,4.63
2018-09-25T21:28:52.532Z,3.83
2018-09-25T21:31:30.461Z,4.17
2018-09-25T21:34:08.453Z,4.57
2018-09-25T21:36:46.375Z,3.97
2018-09-25T21:39:24.367Z,3.83
2018-09-25T21:42:02.306Z,3.67
2018-09-25T21:44:40.274Z,3.30
2018-09-25T21:47:18.226Z,3.37
2018-09-25T21:49:56.166Z,3.50
2018-09-25T21:52:34.098Z,3.43
2018-09-25T21:55:12.051Z,3.70
2018-09-25T21:57:49.972Z,3.07
2018-09-25T22:00:27.878Z,3.23
2018-09-25T22:03:05.897Z,3.13
2018-09-25T22:05:43.963Z,3.60
2018-09-25T22:08:21.923Z,3.60
2018-09-25T22:10:59.838Z,3.20
2018-09-25T22:13:37.820Z,3.70
2018-09-25T22:16:15.618Z,3.23
2018-09-25T22:18:53.650Z,3.53
2018-09-25T22:21:31.686Z,3.63
2018-09-25T22:24:09.581Z,3.20
2018-09-25T22:26:47.498Z,3.43
2018-09-25T22:29:25.476Z,3.80
2018-09-25T22:32:03.506Z,11.03
2018-09-25T22:34:41.520Z,6.17
2018-09-25T22:37:19.490Z,6.53
2018-09-25T22:39:57.370Z,4.60
2018-09-25T22:42:35.237Z,3.37
2018-09-25T22:45:13.174Z,3.67
2018-09-25T22:47:51.045Z,3.97
2018-09-25T22:50:28.952Z,4.03
2018-09-25T22:53:06.854Z,3.33
2018-09-25T22:55:44.736Z,3.40
2018-09-25T22:58:22.725Z,3.30
2018-09-25T23:01:00.563Z,3.07
2018-09-25T23:03:38.426Z,3.13
2018-09-25T23:06:16.388Z,3.37
2018-09-25T23:08:54.376Z,3.60
2018-09-25T23:11:32.204Z,3.47
2018-09-25T23:14:10.037Z,3.53
2018-09-25T23:16:47.985Z,4.00
2018-09-25T23:19:26.114Z,3.37
2018-09-25T23:22:04.011Z,3.60
2018-09-25T23:24:41.924Z,3.43
2018-09-25T23:27:19.805Z,3.50
2018-09-25T23:29:57.841Z,3.63
2018-09-25T23:32:35.721Z,3.60
2018-09-25T23:35:13.675Z,3.67
2018-09-25T23:37:51.581Z,3.20
2018-09-25T23:40:29.521Z,3.60
2018-09-25T23:45:15.073Z,3.50
2018-09-25T23:47:53.037Z,4.00
2018-09-25T23:50:31.095Z,3.57
2018-09-25T23:53:05.785Z,3.00
2018-09-25T23:55:44.535Z,3.27
2018-09-25T23:58:23.333Z,3.17
